sensor_id;sensor_type;location;lat;lon;timestamp;P1;durP1;ratioP1;P2;durP2;ratioP2
47403;SDS011;33157;51.508;4.288;2022-11-15T00:03:06;74.40;;;37.03;;
47403;SDS011;33157;51.508;4.288;2022-11-15T00:08:06;61.33;;;35.10;;
47403;SDS011;33157;51.508;4.288;2022-11-15T00:13:11;57.10;;;32.28;;
47403;SDS011;33157;51.508;4.288;2022-11-15T00:18:13;60.45;;;31.08;;
47403;SDS011;33157;51.508;4.288;2022-11-15T00:23:13;48.63;;;31.00;;
47403;SDS011;33157;51.508;4.288;2022-11-15T00:28:14;45.55;;;28.60;;
47403;SDS011;33157;51.508;4.288;2022-11-15T00:33:14;49.33;;;29.50;;
47403;SDS011;33157;51.508;4.288;2022-11-15T00:38:15;48.50;;;28.60;;
47403;SDS011;33157;51.508;4.288;2022-11-15T00:43:16;50.08;;;28.95;;
47403;SDS011;33157;51.508;4.288;2022-11-15T00:48:16;45.50;;;28.48;;
47403;SDS011;33157;51.508;4.288;2022-11-15T00:53:17;48.60;;;28.25;;
47403;SDS011;33157;51.508;4.288;2022-11-15T00:58:18;47.80;;;28.63;;
47403;SDS011;33157;51.508;4.288;2022-11-15T01:03:18;50.97;;;29.15;;
47403;SDS011;33157;51.508;4.288;2022-11-15T01:08:19;47.22;;;27.00;;
47403;SDS011;33157;51.508;4.288;2022-11-15T01:13:20;45.08;;;26.13;;
47403;SDS011;33157;51.508;4.288;2022-11-15T01:18:20;46.45;;;25.48;;
47403;SDS011;33157;51.508;4.288;2022-11-15T01:23:21;39.53;;;25.48;;
47403;SDS011;33157;51.508;4.288;2022-11-15T01:28:21;43.63;;;25.70;;
47403;SDS011;33157;51.508;4.288;2022-11-15T01:33:22;38.13;;;25.92;;
47403;SDS011;33157;51.508;4.288;2022-11-15T01:38:23;36.80;;;24.25;;
47403;SDS011;33157;51.508;4.288;2022-11-15T01:43:28;34.22;;;21.73;;
47403;SDS011;33157;51.508;4.288;2022-11-15T01:48:33;37.33;;;24.05;;
47403;SDS011;33157;51.508;4.288;2022-11-15T01:53:34;30.38;;;21.45;;
47403;SDS011;33157;51.508;4.288;2022-11-15T01:58:38;32.25;;;20.33;;
47403;SDS011;33157;51.508;4.288;2022-11-15T02:03:42;32.90;;;19.95;;
47403;SDS011;33157;51.508;4.288;2022-11-15T02:08:49;27.55;;;19.23;;
47403;SDS011;33157;51.508;4.288;2022-11-15T02:13:51;30.70;;;18.67;;
47403;SDS011;33157;51.508;4.288;2022-11-15T02:18:57;33.05;;;18.85;;
47403;SDS011;33157;51.508;4.288;2022-11-15T02:40:05;27.10;;;19.27;;
47403;SDS011;33157;51.508;4.288;2022-11-15T02:45:12;31.50;;;19.00;;
47403;SDS011;33157;51.508;4.288;2022-11-15T02:50:19;30.67;;;19.15;;
47403;SDS011;33157;51.508;4.288;2022-11-15T02:55:29;25.95;;;17.80;;
47403;SDS011;33157;51.508;4.288;2022-11-15T03:00:33;28.20;;;18.42;;
47403;SDS011;33157;51.508;4.288;2022-11-15T03:05:46;28.48;;;18.73;;
47403;SDS011;33157;51.508;4.288;2022-11-15T03:21:08;26.27;;;17.88;;
47403;SDS011;33157;51.508;4.288;2022-11-15T03:26:11;27.02;;;18.27;;
47403;SDS011;33157;51.508;4.288;2022-11-15T03:31:14;28.30;;;16.70;;
47403;SDS011;33157;51.508;4.288;2022-11-15T03:36:34;32.70;;;17.05;;
47403;SDS011;33157;51.508;4.288;2022-11-15T03:41:39;23.42;;;15.77;;
47403;SDS011;33157;51.508;4.288;2022-11-15T03:46:46;25.27;;;14.70;;
47403;SDS011;33157;51.508;4.288;2022-11-15T03:51:48;22.60;;;13.45;;
47403;SDS011;33157;51.508;4.288;2022-11-15T03:56:49;21.15;;;13.13;;
47403;SDS011;33157;51.508;4.288;2022-11-15T04:01:49;19.00;;;12.02;;
47403;SDS011;33157;51.508;4.288;2022-11-15T04:06:50;21.88;;;11.93;;
47403;SDS011;33157;51.508;4.288;2022-11-15T04:11:50;20.15;;;11.77;;
47403;SDS011;33157;51.508;4.288;2022-11-15T04:16:51;17.77;;;10.82;;
47403;SDS011;33157;51.508;4.288;2022-11-15T04:21:51;19.52;;;9.35;;
47403;SDS011;33157;51.508;4.288;2022-11-15T04:27:10;18.80;;;9.63;;
47403;SDS011;33157;51.508;4.288;2022-11-15T04:32:13;16.20;;;9.00;;
47403;SDS011;33157;51.508;4.288;2022-11-15T04:37:13;22.88;;;10.40;;
47403;SDS011;33157;51.508;4.288;2022-11-15T04:42:15;18.88;;;10.15;;
47403;SDS011;33157;51.508;4.288;2022-11-15T04:47:15;21.55;;;8.82;;
47403;SDS011;33157;51.508;4.288;2022-11-15T04:52:16;21.13;;;9.25;;
47403;SDS011;33157;51.508;4.288;2022-11-15T04:57:16;18.02;;;8.23;;
47403;SDS011;33157;51.508;4.288;2022-11-15T05:02:17;20.40;;;8.63;;
47403;SDS011;33157;51.508;4.288;2022-11-15T05:07:17;19.45;;;8.32;;
47403;SDS011;33157;51.508;4.288;2022-11-15T05:12:18;12.23;;;6.68;;
47403;SDS011;33157;51.508;4.288;2022-11-15T05:17:18;16.70;;;7.47;;
47403;SDS011;33157;51.508;4.288;2022-11-15T05:22:19;15.95;;;7.45;;
47403;SDS011;33157;51.508;4.288;2022-11-15T05:27:20;15.93;;;7.22;;
47403;SDS011;33157;51.508;4.288;2022-11-15T05:32:20;16.55;;;7.53;;
47403;SDS011;33157;51.508;4.288;2022-11-15T05:37:21;16.52;;;7.50;;
47403;SDS011;33157;51.508;4.288;2022-11-15T05:42:22;16.02;;;7.65;;
47403;SDS011;33157;51.508;4.288;2022-11-15T05:47:23;20.80;;;9.18;;
47403;SDS011;33157;51.508;4.288;2022-11-15T05:52:25;15.98;;;8.13;;
47403;SDS011;33157;51.508;4.288;2022-11-15T05:57:30;13.55;;;7.63;;
47403;SDS011;33157;51.508;4.288;2022-11-15T06:02:30;20.05;;;9.60;;
47403;SDS011;33157;51.508;4.288;2022-11-15T06:07:31;22.98;;;8.75;;
47403;SDS011;33157;51.508;4.288;2022-11-15T06:12:31;18.40;;;9.88;;
47403;SDS011;33157;51.508;4.288;2022-11-15T06:17:32;16.42;;;9.30;;
47403;SDS011;33157;51.508;4.288;2022-11-15T06:22:32;19.58;;;8.82;;
47403;SDS011;33157;51.508;4.288;2022-11-15T06:27:34;14.50;;;8.20;;
47403;SDS011;33157;51.508;4.288;2022-11-15T06:32:35;13.43;;;7.55;;
47403;SDS011;33157;51.508;4.288;2022-11-15T06:37:35;14.52;;;7.25;;
47403;SDS011;33157;51.508;4.288;2022-11-15T06:42:36;15.43;;;6.95;;
47403;SDS011;33157;51.508;4.288;2022-11-15T06:47:43;22.15;;;6.78;;
47403;SDS011;33157;51.508;4.288;2022-11-15T06:52:47;14.57;;;5.50;;
47403;SDS011;33157;51.508;4.288;2022-11-15T06:57:51;9.65;;;5.82;;
47403;SDS011;33157;51.508;4.288;2022-11-15T07:02:52;25.02;;;18.48;;
47403;SDS011;33157;51.508;4.288;2022-11-15T07:07:53;28.80;;;19.58;;
47403;SDS011;33157;51.508;4.288;2022-11-15T07:12:54;21.15;;;9.00;;
47403;SDS011;33157;51.508;4.288;2022-11-15T07:17:55;12.38;;;6.28;;
47403;SDS011;33157;51.508;4.288;2022-11-15T07:23:02;15.18;;;5.82;;
47403;SDS011;33157;51.508;4.288;2022-11-15T07:28:04;14.05;;;6.30;;
47403;SDS011;33157;51.508;4.288;2022-11-15T07:33:04;13.43;;;6.10;;
47403;SDS011;33157;51.508;4.288;2022-11-15T07:38:05;19.63;;;7.60;;
47403;SDS011;33157;51.508;4.288;2022-11-15T07:43:06;16.40;;;7.72;;
47403;SDS011;33157;51.508;4.288;2022-11-15T07:48:07;14.03;;;6.03;;
47403;SDS011;33157;51.508;4.288;2022-11-15T07:53:08;14.45;;;5.65;;
47403;SDS011;33157;51.508;4.288;2022-11-15T07:58:10;16.33;;;6.03;;
47403;SDS011;33157;51.508;4.288;2022-11-15T08:03:12;8.50;;;4.80;;
47403;SDS011;33157;51.508;4.288;2022-11-15T08:08:14;12.70;;;4.70;;
47403;SDS011;33157;51.508;4.288;2022-11-15T08:13:14;12.65;;;4.38;;
47403;SDS011;33157;51.508;4.288;2022-11-15T08:18:16;14.60;;;4.90;;
47403;SDS011;33157;51.508;4.288;2022-11-15T08:23:16;21.85;;;5.95;;
47403;SDS011;33157;51.508;4.288;2022-11-15T08:28:17;9.70;;;5.70;;
47403;SDS011;33157;51.508;4.288;2022-11-15T08:33:17;11.10;;;4.63;;
47403;SDS011;33157;51.508;4.288;2022-11-15T08:38:18;13.15;;;5.15;;
47403;SDS011;33157;51.508;4.288;2022-11-15T08:43:18;10.05;;;5.22;;
47403;SDS011;33157;51.508;4.288;2022-11-15T08:48:19;8.70;;;3.95;;
47403;SDS011;33157;51.508;4.288;2022-11-15T08:53:19;10.90;;;4.60;;
47403;SDS011;33157;51.508;4.288;2022-11-15T08:58:20;9.13;;;4.55;;
47403;SDS011;33157;51.508;4.288;2022-11-15T09:03:20;12.15;;;3.88;;
47403;SDS011;33157;51.508;4.288;2022-11-15T09:08:21;9.73;;;3.30;;
47403;SDS011;33157;51.508;4.288;2022-11-15T09:13:22;7.38;;;2.85;;
47403;SDS011;33157;51.508;4.288;2022-11-15T09:18:22;11.95;;;3.45;;
47403;SDS011;33157;51.508;4.288;2022-11-15T09:23:23;9.45;;;3.00;;
47403;SDS011;33157;51.508;4.288;2022-11-15T09:28:24;6.20;;;2.47;;
47403;SDS011;33157;51.508;4.288;2022-11-15T09:33:25;9.85;;;4.43;;
47403;SDS011;33157;51.508;4.288;2022-11-15T09:38:26;15.57;;;3.10;;
47403;SDS011;33157;51.508;4.288;2022-11-15T09:48:33;5.53;;;2.28;;
47403;SDS011;33157;51.508;4.288;2022-11-15T09:54:05;9.98;;;2.08;;
47403;SDS011;33157;51.508;4.288;2022-11-15T10:04:22;15.57;;;1.98;;
47403;SDS011;33157;51.508;4.288;2022-11-15T10:09:24;8.00;;;2.00;;
47403;SDS011;33157;51.508;4.288;2022-11-15T10:14:29;6.80;;;2.25;;
47403;SDS011;33157;51.508;4.288;2022-11-15T10:24:58;8.30;;;1.63;;
47403;SDS011;33157;51.508;4.288;2022-11-15T10:30:15;5.95;;;1.60;;
47403;SDS011;33157;51.508;4.288;2022-11-15T10:35:19;9.90;;;2.38;;
47403;SDS011;33157;51.508;4.288;2022-11-15T10:40:23;5.55;;;1.73;;
47403;SDS011;33157;51.508;4.288;2022-11-15T10:45:26;8.45;;;1.77;;
47403;SDS011;33157;51.508;4.288;2022-11-15T10:50:30;8.88;;;1.70;;
47403;SDS011;33157;51.508;4.288;2022-11-15T10:55:32;15.35;;;2.40;;
47403;SDS011;33157;51.508;4.288;2022-11-15T11:00:37;12.07;;;1.43;;
47403;SDS011;33157;51.508;4.288;2022-11-15T11:05:41;11.57;;;2.40;;
47403;SDS011;33157;51.508;4.288;2022-11-15T11:10:55;26.67;;;9.35;;
47403;SDS011;33157;51.508;4.288;2022-11-15T11:21:31;9.63;;;4.05;;
47403;SDS011;33157;51.508;4.288;2022-11-15T11:27:23;15.73;;;6.70;;
47403;SDS011;33157;51.508;4.288;2022-11-15T11:37:23;21.75;;;8.57;;
47403;SDS011;33157;51.508;4.288;2022-11-15T11:42:34;51.75;;;17.05;;
47403;SDS011;33157;51.508;4.288;2022-11-15T11:48:20;13.17;;;5.27;;
47403;SDS011;33157;51.508;4.288;2022-11-15T11:58:43;13.38;;;2.05;;
47403;SDS011;33157;51.508;4.288;2022-11-15T12:08:57;9.68;;;2.17;;
47403;SDS011;33157;51.508;4.288;2022-11-15T12:14:01;10.32;;;4.20;;
47403;SDS011;33157;51.508;4.288;2022-11-15T12:19:04;15.80;;;7.15;;
47403;SDS011;33157;51.508;4.288;2022-11-15T12:24:09;12.98;;;3.25;;
47403;SDS011;33157;51.508;4.288;2022-11-15T12:29:16;32.80;;;10.75;;
47403;SDS011;33157;51.508;4.288;2022-11-15T12:40:03;72.30;;;27.58;;
47403;SDS011;33157;51.508;4.288;2022-11-15T12:45:02;9.85;;;2.83;;
47403;SDS011;33157;51.508;4.288;2022-11-15T12:50:02;9.40;;;3.90;;
47403;SDS011;33157;51.508;4.288;2022-11-15T12:55:14;9.30;;;3.13;;
47403;SDS011;33157;51.508;4.288;2022-11-15T13:10:33;9.32;;;1.77;;
47403;SDS011;33157;51.508;4.288;2022-11-15T13:21:23;8.73;;;1.52;;
47403;SDS011;33157;51.508;4.288;2022-11-15T13:26:42;10.60;;;1.35;;
47403;SDS011;33157;51.508;4.288;2022-11-15T13:31:43;4.50;;;0.98;;
47403;SDS011;33157;51.508;4.288;2022-11-15T13:36:45;6.68;;;1.40;;
47403;SDS011;33157;51.508;4.288;2022-11-15T13:41:50;4.63;;;1.13;;
47403;SDS011;33157;51.508;4.288;2022-11-15T13:52:30;4.85;;;1.10;;
47403;SDS011;33157;51.508;4.288;2022-11-15T14:02:44;4.68;;;1.20;;
47403;SDS011;33157;51.508;4.288;2022-11-15T14:08:12;6.65;;;1.30;;
47403;SDS011;33157;51.508;4.288;2022-11-15T14:13:29;4.32;;;1.10;;
47403;SDS011;33157;51.508;4.288;2022-11-15T14:18:41;7.00;;;1.67;;
47403;SDS011;33157;51.508;4.288;2022-11-15T14:23:46;5.28;;;1.50;;
47403;SDS011;33157;51.508;4.288;2022-11-15T14:28:49;7.78;;;1.60;;
47403;SDS011;33157;51.508;4.288;2022-11-15T14:33:49;5.75;;;1.67;;
47403;SDS011;33157;51.508;4.288;2022-11-15T14:38:50;6.00;;;1.17;;
47403;SDS011;33157;51.508;4.288;2022-11-15T14:43:51;6.90;;;1.58;;
47403;SDS011;33157;51.508;4.288;2022-11-15T14:48:52;2.87;;;1.13;;
47403;SDS011;33157;51.508;4.288;2022-11-15T14:53:53;9.73;;;1.50;;
47403;SDS011;33157;51.508;4.288;2022-11-15T14:58:55;5.40;;;1.17;;
47403;SDS011;33157;51.508;4.288;2022-11-15T15:03:56;4.50;;;1.05;;
47403;SDS011;33157;51.508;4.288;2022-11-15T15:08:58;3.92;;;1.35;;
47403;SDS011;33157;51.508;4.288;2022-11-15T15:13:59;6.47;;;1.38;;
47403;SDS011;33157;51.508;4.288;2022-11-15T15:19:01;6.40;;;1.75;;
47403;SDS011;33157;51.508;4.288;2022-11-15T15:24:02;5.50;;;1.58;;
47403;SDS011;33157;51.508;4.288;2022-11-15T15:29:03;9.82;;;1.60;;
47403;SDS011;33157;51.508;4.288;2022-11-15T15:34:03;5.32;;;1.67;;
47403;SDS011;33157;51.508;4.288;2022-11-15T15:39:04;4.00;;;1.10;;
47403;SDS011;33157;51.508;4.288;2022-11-15T15:44:05;4.05;;;1.33;;
47403;SDS011;33157;51.508;4.288;2022-11-15T15:49:08;8.13;;;1.85;;
47403;SDS011;33157;51.508;4.288;2022-11-15T15:54:09;7.05;;;2.10;;
47403;SDS011;33157;51.508;4.288;2022-11-15T15:59:10;32.33;;;21.55;;
47403;SDS011;33157;51.508;4.288;2022-11-15T16:04:11;10.93;;;6.68;;
47403;SDS011;33157;51.508;4.288;2022-11-15T16:09:14;10.32;;;3.28;;
47403;SDS011;33157;51.508;4.288;2022-11-15T16:14:16;7.15;;;3.22;;
47403;SDS011;33157;51.508;4.288;2022-11-15T16:19:16;7.97;;;2.30;;
47403;SDS011;33157;51.508;4.288;2022-11-15T16:24:17;4.40;;;2.13;;
47403;SDS011;33157;51.508;4.288;2022-11-15T16:29:18;6.00;;;2.95;;
47403;SDS011;33157;51.508;4.288;2022-11-15T16:34:19;4.75;;;2.28;;
47403;SDS011;33157;51.508;4.288;2022-11-15T16:39:20;7.10;;;2.67;;
47403;SDS011;33157;51.508;4.288;2022-11-15T16:44:20;4.68;;;2.58;;
47403;SDS011;33157;51.508;4.288;2022-11-15T16:49:21;10.05;;;4.05;;
47403;SDS011;33157;51.508;4.288;2022-11-15T16:54:22;19.35;;;4.13;;
47403;SDS011;33157;51.508;4.288;2022-11-15T16:59:22;8.73;;;4.88;;
47403;SDS011;33157;51.508;4.288;2022-11-15T17:04:23;8.55;;;4.80;;
47403;SDS011;33157;51.508;4.288;2022-11-15T17:09:24;17.92;;;9.95;;
47403;SDS011;33157;51.508;4.288;2022-11-15T17:14:24;12.50;;;7.03;;
47403;SDS011;33157;51.508;4.288;2022-11-15T17:19:25;11.18;;;6.97;;
47403;SDS011;33157;51.508;4.288;2022-11-15T17:24:25;18.13;;;11.90;;
47403;SDS011;33157;51.508;4.288;2022-11-15T17:29:26;11.38;;;7.05;;
47403;SDS011;33157;51.508;4.288;2022-11-15T17:34:26;21.08;;;11.93;;
47403;SDS011;33157;51.508;4.288;2022-11-15T17:39:27;33.40;;;20.88;;
47403;SDS011;33157;51.508;4.288;2022-11-15T17:44:27;12.85;;;7.93;;
47403;SDS011;33157;51.508;4.288;2022-11-15T17:49:28;8.82;;;5.05;;
47403;SDS011;33157;51.508;4.288;2022-11-15T17:54:29;8.90;;;4.97;;
47403;SDS011;33157;51.508;4.288;2022-11-15T17:59:29;11.52;;;5.18;;
47403;SDS011;33157;51.508;4.288;2022-11-15T18:04:30;8.02;;;4.53;;
47403;SDS011;33157;51.508;4.288;2022-11-15T18:09:31;8.57;;;6.55;;
47403;SDS011;33157;51.508;4.288;2022-11-15T18:14:32;15.65;;;6.82;;
47403;SDS011;33157;51.508;4.288;2022-11-15T18:19:32;17.20;;;12.55;;
47403;SDS011;33157;51.508;4.288;2022-11-15T18:24:34;13.43;;;9.35;;
47403;SDS011;33157;51.508;4.288;2022-11-15T18:29:40;8.75;;;6.35;;
47403;SDS011;33157;51.508;4.288;2022-11-15T18:34:41;9.02;;;7.82;;
47403;SDS011;33157;51.508;4.288;2022-11-15T18:39:41;9.05;;;6.28;;
47403;SDS011;33157;51.508;4.288;2022-11-15T18:44:42;7.63;;;5.70;;
47403;SDS011;33157;51.508;4.288;2022-11-15T18:49:42;11.13;;;6.05;;
47403;SDS011;33157;51.508;4.288;2022-11-15T18:54:43;7.55;;;5.97;;
47403;SDS011;33157;51.508;4.288;2022-11-15T18:59:44;10.23;;;5.97;;
47403;SDS011;33157;51.508;4.288;2022-11-15T19:04:44;8.40;;;5.15;;
47403;SDS011;33157;51.508;4.288;2022-11-15T19:09:45;9.80;;;5.85;;
47403;SDS011;33157;51.508;4.288;2022-11-15T19:14:45;10.40;;;5.82;;
47403;SDS011;33157;51.508;4.288;2022-11-15T19:19:46;10.57;;;6.88;;
47403;SDS011;33157;51.508;4.288;2022-11-15T19:24:47;8.48;;;5.85;;
47403;SDS011;33157;51.508;4.288;2022-11-15T19:29:47;11.48;;;5.95;;
47403;SDS011;33157;51.508;4.288;2022-11-15T19:34:48;10.43;;;5.93;;
47403;SDS011;33157;51.508;4.288;2022-11-15T19:39:48;9.45;;;6.22;;
47403;SDS011;33157;51.508;4.288;2022-11-15T19:44:49;9.45;;;7.05;;
47403;SDS011;33157;51.508;4.288;2022-11-15T19:49:49;7.95;;;6.18;;
47403;SDS011;33157;51.508;4.288;2022-11-15T19:54:50;9.02;;;6.47;;
47403;SDS011;33157;51.508;4.288;2022-11-15T19:59:50;9.60;;;7.03;;
47403;SDS011;33157;51.508;4.288;2022-11-15T20:04:51;10.75;;;7.55;;
47403;SDS011;33157;51.508;4.288;2022-11-15T20:09:52;12.85;;;8.70;;
47403;SDS011;33157;51.508;4.288;2022-11-15T20:14:53;11.93;;;7.43;;
47403;SDS011;33157;51.508;4.288;2022-11-15T20:19:53;10.50;;;7.45;;
47403;SDS011;33157;51.508;4.288;2022-11-15T20:24:54;10.93;;;7.32;;
47403;SDS011;33157;51.508;4.288;2022-11-15T20:29:55;9.02;;;6.68;;
47403;SDS011;33157;51.508;4.288;2022-11-15T20:34:55;10.48;;;8.02;;
47403;SDS011;33157;51.508;4.288;2022-11-15T20:39:56;10.38;;;6.78;;
47403;SDS011;33157;51.508;4.288;2022-11-15T20:44:56;10.10;;;7.68;;
47403;SDS011;33157;51.508;4.288;2022-11-15T20:49:57;11.00;;;7.22;;
47403;SDS011;33157;51.508;4.288;2022-11-15T20:54:59;9.10;;;6.63;;
47403;SDS011;33157;51.508;4.288;2022-11-15T20:59:59;10.20;;;7.90;;
47403;SDS011;33157;51.508;4.288;2022-11-15T21:05:00;9.00;;;7.00;;
47403;SDS011;33157;51.508;4.288;2022-11-15T21:10:01;10.02;;;6.38;;
47403;SDS011;33157;51.508;4.288;2022-11-15T21:15:20;9.35;;;6.95;;
47403;SDS011;33157;51.508;4.288;2022-11-15T21:20:20;8.13;;;6.40;;
47403;SDS011;33157;51.508;4.288;2022-11-15T21:25:21;11.10;;;6.72;;
47403;SDS011;33157;51.508;4.288;2022-11-15T21:30:22;8.55;;;6.45;;
47403;SDS011;33157;51.508;4.288;2022-11-15T21:35:22;11.68;;;7.15;;
47403;SDS011;33157;51.508;4.288;2022-11-15T21:40:23;10.25;;;7.50;;
47403;SDS011;33157;51.508;4.288;2022-11-15T21:45:24;9.18;;;6.88;;
47403;SDS011;33157;51.508;4.288;2022-11-15T21:50:25;11.38;;;7.05;;
47403;SDS011;33157;51.508;4.288;2022-11-15T21:55:25;8.30;;;6.07;;
47403;SDS011;33157;51.508;4.288;2022-11-15T22:00:26;11.75;;;6.93;;
47403;SDS011;33157;51.508;4.288;2022-11-15T22:05:45;8.20;;;6.75;;
47403;SDS011;33157;51.508;4.288;2022-11-15T22:10:46;12.63;;;7.60;;
47403;SDS011;33157;51.508;4.288;2022-11-15T22:15:47;10.75;;;8.38;;
47403;SDS011;33157;51.508;4.288;2022-11-15T22:26:01;9.35;;;7.53;;
47403;SDS011;33157;51.508;4.288;2022-11-15T22:31:03;9.95;;;7.75;;
47403;SDS011;33157;51.508;4.288;2022-11-15T22:36:04;13.45;;;8.35;;
47403;SDS011;33157;51.508;4.288;2022-11-15T22:41:05;10.75;;;7.80;;
47403;SDS011;33157;51.508;4.288;2022-11-15T22:46:05;9.45;;;7.75;;
47403;SDS011;33157;51.508;4.288;2022-11-15T22:51:06;10.70;;;9.02;;
47403;SDS011;33157;51.508;4.288;2022-11-15T22:56:08;12.20;;;8.70;;
47403;SDS011;33157;51.508;4.288;2022-11-15T23:01:14;11.18;;;8.00;;
47403;SDS011;33157;51.508;4.288;2022-11-15T23:06:18;11.77;;;8.38;;
47403;SDS011;33157;51.508;4.288;2022-11-15T23:11:19;11.90;;;9.00;;
47403;SDS011;33157;51.508;4.288;2022-11-15T23:16:38;13.35;;;9.45;;
47403;SDS011;33157;51.508;4.288;2022-11-15T23:21:40;10.82;;;8.10;;
47403;SDS011;33157;51.508;4.288;2022-11-15T23:27:02;10.63;;;9.37;;
47403;SDS011;33157;51.508;4.288;2022-11-15T23:32:07;11.48;;;9.20;;
47403;SDS011;33157;51.508;4.288;2022-11-15T23:37:26;13.48;;;8.40;;
47403;SDS011;33157;51.508;4.288;2022-11-15T23:42:26;11.35;;;9.55;;
47403;SDS011;33157;51.508;4.288;2022-11-15T23:47:27;13.18;;;10.20;;
47403;SDS011;33157;51.508;4.288;2022-11-15T23:52:27;11.18;;;8.68;;
47403;SDS011;33157;51.508;4.288;2022-11-15T23:57:28;13.40;;;9.52;;
